sensor_id;sensor_type;location;lat;lon;timestamp;temperature;humidity
212;DHT22;16228;48.800;9.002;2022-11-15T00:02:10;10.70;96.90
212;DHT22;16228;48.800;9.002;2022-11-15T00:04:37;10.70;96.90
212;DHT22;16228;48.800;9.002;2022-11-15T00:07:06;10.70;96.90
212;DHT22;16228;48.800;9.002;2022-11-15T00:09:33;10.60;96.90
212;DHT22;16228;48.800;9.002;2022-11-15T00:12:00;10.50;96.90
212;DHT22;16228;48.800;9.002;2022-11-15T00:14:27;10.50;96.90
212;DHT22;16228;48.800;9.002;2022-11-15T00:16:54;10.50;96.90
212;DHT22;16228;48.800;9.002;2022-11-15T00:19:21;10.50;96.90
212;DHT22;16228;48.800;9.002;2022-11-15T00:21:48;10.50;96.90
212;DHT22;16228;48.800;9.002;2022-11-15T00:24:16;10.50;96.90
212;DHT22;16228;48.800;9.002;2022-11-15T00:26:43;10.40;96.90
212;DHT22;16228;48.800;9.002;2022-11-15T00:29:10;10.40;96.90
212;DHT22;16228;48.800;9.002;2022-11-15T00:31:37;10.30;96.90
212;DHT22;16228;48.800;9.002;2022-11-15T00:34:04;10.30;96.90
212;DHT22;16228;48.800;9.002;2022-11-15T00:36:33;10.20;96.90
212;DHT22;16228;48.800;9.002;2022-11-15T00:39:00;10.10;96.90
212;DHT22;16228;48.800;9.002;2022-11-15T00:41:28;10.10;96.90
212;DHT22;16228;48.800;9.002;2022-11-15T00:43:55;10.00;96.90
212;DHT22;16228;48.800;9.002;2022-11-15T00:46:22;9.90;96.90
212;DHT22;16228;48.800;9.002;2022-11-15T00:48:49;9.90;96.90
212;DHT22;16228;48.800;9.002;2022-11-15T00:51:16;9.90;96.90
212;DHT22;16228;48.800;9.002;2022-11-15T00:53:43;9.80;96.90
212;DHT22;16228;48.800;9.002;2022-11-15T00:56:10;9.70;96.90
212;DHT22;16228;48.800;9.002;2022-11-15T00:58:39;9.70;96.90
212;DHT22;16228;48.800;9.002;2022-11-15T01:01:07;9.50;96.90
212;DHT22;16228;48.800;9.002;2022-11-15T01:03:35;9.50;96.90
212;DHT22;16228;48.800;9.002;2022-11-15T01:06:02;9.40;96.90
212;DHT22;16228;48.800;9.002;2022-11-15T01:08:29;9.30;96.90
212;DHT22;16228;48.800;9.002;2022-11-15T01:11:00;9.20;96.90
212;DHT22;16228;48.800;9.002;2022-11-15T01:13:30;9.10;96.90
212;DHT22;16228;48.800;9.002;2022-11-15T01:15:58;8.90;96.90
212;DHT22;16228;48.800;9.002;2022-11-15T01:18:26;8.80;96.90
212;DHT22;16228;48.800;9.002;2022-11-15T01:20:53;8.70;96.90
212;DHT22;16228;48.800;9.002;2022-11-15T01:23:20;8.60;96.90
212;DHT22;16228;48.800;9.002;2022-11-15T01:25:47;8.50;96.90
212;DHT22;16228;48.800;9.002;2022-11-15T01:28:14;8.40;96.90
212;DHT22;16228;48.800;9.002;2022-11-15T01:30:41;8.30;96.90
212;DHT22;16228;48.800;9.002;2022-11-15T01:33:09;8.20;96.90
212;DHT22;16228;48.800;9.002;2022-11-15T01:35:38;8.10;96.90
212;DHT22;16228;48.800;9.002;2022-11-15T01:38:06;8.10;96.90
212;DHT22;16228;48.800;9.002;2022-11-15T01:40:33;8.00;96.90
212;DHT22;16228;48.800;9.002;2022-11-15T01:43:18;7.90;96.90
212;DHT22;16228;48.800;9.002;2022-11-15T01:45:47;7.90;96.90
212;DHT22;16228;48.800;9.002;2022-11-15T01:48:18;7.80;96.90
212;DHT22;16228;48.800;9.002;2022-11-15T01:50:45;7.70;96.90
212;DHT22;16228;48.800;9.002;2022-11-15T01:53:12;7.70;96.90
212;DHT22;16228;48.800;9.002;2022-11-15T01:55:39;7.70;96.90
212;DHT22;16228;48.800;9.002;2022-11-15T01:58:07;7.60;96.90
212;DHT22;16228;48.800;9.002;2022-11-15T02:00:34;7.60;96.90
212;DHT22;16228;48.800;9.002;2022-11-15T02:03:02;7.60;96.90
212;DHT22;16228;48.800;9.002;2022-11-15T02:05:31;7.60;96.90
212;DHT22;16228;48.800;9.002;2022-11-15T02:07:59;7.60;96.90
212;DHT22;16228;48.800;9.002;2022-11-15T02:10:27;7.60;96.90
212;DHT22;16228;48.800;9.002;2022-11-15T02:12:56;7.70;96.90
212;DHT22;16228;48.800;9.002;2022-11-15T02:15:29;7.70;96.90
212;DHT22;16228;48.800;9.002;2022-11-15T02:18:07;7.60;96.90
212;DHT22;16228;48.800;9.002;2022-11-15T02:20:50;7.60;96.90
212;DHT22;16228;48.800;9.002;2022-11-15T02:23:38;7.60;96.90
212;DHT22;16228;48.800;9.002;2022-11-15T02:26:37;7.60;96.90
212;DHT22;16228;48.800;9.002;2022-11-15T02:29:08;7.60;96.90
212;DHT22;16228;48.800;9.002;2022-11-15T02:31:44;7.60;96.90
212;DHT22;16228;48.800;9.002;2022-11-15T02:34:20;7.70;96.90
212;DHT22;16228;48.800;9.002;2022-11-15T02:36:57;7.70;96.90
212;DHT22;16228;48.800;9.002;2022-11-15T02:39:31;7.70;96.90
212;DHT22;16228;48.800;9.002;2022-11-15T02:42:03;7.80;96.90
212;DHT22;16228;48.800;9.002;2022-11-15T02:44:55;7.80;96.90
212;DHT22;16228;48.800;9.002;2022-11-15T02:47:24;7.80;96.90
212;DHT22;16228;48.800;9.002;2022-11-15T02:49:57;7.80;96.90
212;DHT22;16228;48.800;9.002;2022-11-15T02:52:24;7.70;96.90
212;DHT22;16228;48.800;9.002;2022-11-15T02:54:53;7.70;96.90
212;DHT22;16228;48.800;9.002;2022-11-15T02:57:27;7.70;96.90
212;DHT22;16228;48.800;9.002;2022-11-15T03:00:04;7.70;96.90
212;DHT22;16228;48.800;9.002;2022-11-15T03:02:42;7.70;96.90
212;DHT22;16228;48.800;9.002;2022-11-15T03:05:16;7.60;96.90
212;DHT22;16228;48.800;9.002;2022-11-15T03:07:50;7.60;96.90
212;DHT22;16228;48.800;9.002;2022-11-15T03:10:22;7.70;96.90
212;DHT22;16228;48.800;9.002;2022-11-15T03:12:56;7.70;96.90
212;DHT22;16228;48.800;9.002;2022-11-15T03:15:27;7.70;96.90
212;DHT22;16228;48.800;9.002;2022-11-15T03:18:00;7.80;96.90
212;DHT22;16228;48.800;9.002;2022-11-15T03:20:28;7.70;96.90
212;DHT22;16228;48.800;9.002;2022-11-15T03:23:00;7.70;96.90
212;DHT22;16228;48.800;9.002;2022-11-15T03:25:30;7.80;96.90
212;DHT22;16228;48.800;9.002;2022-11-15T03:28:01;7.80;96.90
212;DHT22;16228;48.800;9.002;2022-11-15T03:30:31;7.80;96.90
212;DHT22;16228;48.800;9.002;2022-11-15T03:33:02;7.90;96.90
212;DHT22;16228;48.800;9.002;2022-11-15T03:35:33;7.90;96.90
212;DHT22;16228;48.800;9.002;2022-11-15T03:38:07;7.90;96.90
212;DHT22;16228;48.800;9.002;2022-11-15T03:40:38;7.90;96.90
212;DHT22;16228;48.800;9.002;2022-11-15T03:43:11;7.90;96.90
212;DHT22;16228;48.800;9.002;2022-11-15T03:45:44;8.00;96.90
212;DHT22;16228;48.800;9.002;2022-11-15T03:48:17;8.00;96.90
212;DHT22;16228;48.800;9.002;2022-11-15T03:50:45;7.90;96.90
212;DHT22;16228;48.800;9.002;2022-11-15T03:53:14;7.90;96.90
212;DHT22;16228;48.800;9.002;2022-11-15T03:55:41;7.90;96.90
212;DHT22;16228;48.800;9.002;2022-11-15T03:58:08;7.90;96.90
212;DHT22;16228;48.800;9.002;2022-11-15T04:00:35;7.90;96.90
212;DHT22;16228;48.800;9.002;2022-11-15T04:03:02;7.90;96.90
212;DHT22;16228;48.800;9.002;2022-11-15T04:05:30;7.90;96.90
212;DHT22;16228;48.800;9.002;2022-11-15T04:07:57;7.90;96.90
212;DHT22;16228;48.800;9.002;2022-11-15T04:10:24;8.00;96.90
212;DHT22;16228;48.800;9.002;2022-11-15T04:12:51;8.10;96.90
212;DHT22;16228;48.800;9.002;2022-11-15T04:15:20;8.10;96.90
212;DHT22;16228;48.800;9.002;2022-11-15T04:17:49;8.20;96.90
212;DHT22;16228;48.800;9.002;2022-11-15T04:20:18;8.20;96.90
212;DHT22;16228;48.800;9.002;2022-11-15T04:23:06;8.30;96.90
212;DHT22;16228;48.800;9.002;2022-11-15T04:25:52;8.30;96.90
212;DHT22;16228;48.800;9.002;2022-11-15T04:28:20;8.30;96.90
212;DHT22;16228;48.800;9.002;2022-11-15T04:30:47;8.30;96.90
212;DHT22;16228;48.800;9.002;2022-11-15T04:33:15;8.30;96.90
212;DHT22;16228;48.800;9.002;2022-11-15T04:35:42;8.30;96.90
212;DHT22;16228;48.800;9.002;2022-11-15T04:38:31;8.40;96.90
212;DHT22;16228;48.800;9.002;2022-11-15T04:40:57;8.40;96.90
212;DHT22;16228;48.800;9.002;2022-11-15T04:43:24;8.40;96.90
212;DHT22;16228;48.800;9.002;2022-11-15T04:45:51;8.50;96.90
212;DHT22;16228;48.800;9.002;2022-11-15T04:48:18;8.60;96.90
212;DHT22;16228;48.800;9.002;2022-11-15T04:50:47;8.70;96.90
212;DHT22;16228;48.800;9.002;2022-11-15T04:53:14;8.70;96.90
212;DHT22;16228;48.800;9.002;2022-11-15T04:55:45;8.60;96.90
212;DHT22;16228;48.800;9.002;2022-11-15T04:58:13;8.60;96.90
212;DHT22;16228;48.800;9.002;2022-11-15T05:00:40;8.60;96.90
212;DHT22;16228;48.800;9.002;2022-11-15T05:03:09;8.40;96.90
212;DHT22;16228;48.800;9.002;2022-11-15T05:05:53;8.40;96.90
212;DHT22;16228;48.800;9.002;2022-11-15T05:08:20;8.30;96.90
212;DHT22;16228;48.800;9.002;2022-11-15T05:10:49;8.20;96.90
212;DHT22;16228;48.800;9.002;2022-11-15T05:13:16;8.20;96.90
212;DHT22;16228;48.800;9.002;2022-11-15T05:15:43;8.10;96.90
212;DHT22;16228;48.800;9.002;2022-11-15T05:18:11;8.00;96.90
212;DHT22;16228;48.800;9.002;2022-11-15T05:20:38;8.10;96.90
212;DHT22;16228;48.800;9.002;2022-11-15T05:23:05;8.00;96.90
212;DHT22;16228;48.800;9.002;2022-11-15T05:25:32;8.00;96.90
212;DHT22;16228;48.800;9.002;2022-11-15T05:28:00;8.00;96.90
212;DHT22;16228;48.800;9.002;2022-11-15T05:30:27;8.00;96.90
212;DHT22;16228;48.800;9.002;2022-11-15T05:32:54;8.10;96.90
212;DHT22;16228;48.800;9.002;2022-11-15T05:35:26;8.00;96.90
212;DHT22;16228;48.800;9.002;2022-11-15T05:37:56;8.00;96.90
212;DHT22;16228;48.800;9.002;2022-11-15T05:40:23;8.00;96.90
212;DHT22;16228;48.800;9.002;2022-11-15T05:42:51;8.00;96.90
212;DHT22;16228;48.800;9.002;2022-11-15T05:45:20;8.00;96.90
212;DHT22;16228;48.800;9.002;2022-11-15T05:47:48;8.00;96.90
212;DHT22;16228;48.800;9.002;2022-11-15T05:50:17;8.00;96.90
212;DHT22;16228;48.800;9.002;2022-11-15T05:52:46;8.00;96.90
212;DHT22;16228;48.800;9.002;2022-11-15T05:55:14;7.90;96.90
212;DHT22;16228;48.800;9.002;2022-11-15T05:57:41;7.90;96.90
212;DHT22;16228;48.800;9.002;2022-11-15T06:00:09;7.80;96.90
212;DHT22;16228;48.800;9.002;2022-11-15T06:02:37;7.80;96.90
212;DHT22;16228;48.800;9.002;2022-11-15T06:05:05;7.80;96.90
212;DHT22;16228;48.800;9.002;2022-11-15T06:07:32;7.80;96.90
212;DHT22;16228;48.800;9.002;2022-11-15T06:09:59;7.80;96.90
212;DHT22;16228;48.800;9.002;2022-11-15T06:12:26;7.70;96.90
212;DHT22;16228;48.800;9.002;2022-11-15T06:14:53;7.70;96.90
212;DHT22;16228;48.800;9.002;2022-11-15T06:17:20;7.60;96.90
212;DHT22;16228;48.800;9.002;2022-11-15T06:19:48;7.50;96.90
212;DHT22;16228;48.800;9.002;2022-11-15T06:22:15;7.50;96.90
212;DHT22;16228;48.800;9.002;2022-11-15T06:24:42;7.50;96.90
212;DHT22;16228;48.800;9.002;2022-11-15T06:27:10;7.40;96.90
212;DHT22;16228;48.800;9.002;2022-11-15T06:29:38;7.50;96.90
212;DHT22;16228;48.800;9.002;2022-11-15T06:32:05;7.50;96.90
212;DHT22;16228;48.800;9.002;2022-11-15T06:34:32;7.50;96.90
212;DHT22;16228;48.800;9.002;2022-11-15T06:37:02;7.60;96.90
212;DHT22;16228;48.800;9.002;2022-11-15T06:39:33;7.60;96.90
212;DHT22;16228;48.800;9.002;2022-11-15T06:42:00;7.70;96.90
212;DHT22;16228;48.800;9.002;2022-11-15T06:44:27;7.80;96.90
212;DHT22;16228;48.800;9.002;2022-11-15T06:46:54;7.80;96.90
212;DHT22;16228;48.800;9.002;2022-11-15T06:49:21;7.80;96.90
212;DHT22;16228;48.800;9.002;2022-11-15T06:51:48;7.80;96.90
212;DHT22;16228;48.800;9.002;2022-11-15T06:54:16;7.90;96.90
212;DHT22;16228;48.800;9.002;2022-11-15T06:56:43;8.00;96.90
212;DHT22;16228;48.800;9.002;2022-11-15T06:59:10;8.00;96.90
212;DHT22;16228;48.800;9.002;2022-11-15T07:01:37;8.10;96.90
212;DHT22;16228;48.800;9.002;2022-11-15T07:04:04;8.20;96.90
212;DHT22;16228;48.800;9.002;2022-11-15T07:06:31;8.30;96.90
212;DHT22;16228;48.800;9.002;2022-11-15T07:08:58;8.40;96.90
212;DHT22;16228;48.800;9.002;2022-11-15T07:11:27;8.50;96.90
212;DHT22;16228;48.800;9.002;2022-11-15T07:13:53;8.60;96.90
212;DHT22;16228;48.800;9.002;2022-11-15T07:16:20;8.80;96.90
212;DHT22;16228;48.800;9.002;2022-11-15T07:18:47;8.90;96.90
212;DHT22;16228;48.800;9.002;2022-11-15T07:21:14;9.10;96.90
212;DHT22;16228;48.800;9.002;2022-11-15T07:23:41;9.30;96.90
212;DHT22;16228;48.800;9.002;2022-11-15T07:26:08;9.50;96.90
212;DHT22;16228;48.800;9.002;2022-11-15T07:28:37;9.70;96.90
212;DHT22;16228;48.800;9.002;2022-11-15T07:31:05;9.90;96.90
212;DHT22;16228;48.800;9.002;2022-11-15T07:33:32;10.00;96.90
212;DHT22;16228;48.800;9.002;2022-11-15T07:35:59;10.30;96.90
212;DHT22;16228;48.800;9.002;2022-11-15T07:38:28;10.50;96.90
212;DHT22;16228;48.800;9.002;2022-11-15T07:40:57;10.70;96.90
212;DHT22;16228;48.800;9.002;2022-11-15T07:43:24;10.90;96.90
212;DHT22;16228;48.800;9.002;2022-11-15T07:45:54;11.10;96.90
212;DHT22;16228;48.800;9.002;2022-11-15T07:48:22;11.20;96.90
212;DHT22;16228;48.800;9.002;2022-11-15T07:50:49;11.30;96.90
212;DHT22;16228;48.800;9.002;2022-11-15T07:53:16;11.50;96.90
212;DHT22;16228;48.800;9.002;2022-11-15T07:55:43;11.60;96.90
212;DHT22;16228;48.800;9.002;2022-11-15T07:58:11;11.70;96.90
212;DHT22;16228;48.800;9.002;2022-11-15T08:00:39;11.80;96.90
212;DHT22;16228;48.800;9.002;2022-11-15T08:03:08;11.90;96.90
212;DHT22;16228;48.800;9.002;2022-11-15T08:05:37;12.00;96.90
212;DHT22;16228;48.800;9.002;2022-11-15T08:08:05;12.10;96.90
212;DHT22;16228;48.800;9.002;2022-11-15T08:10:32;12.20;96.90
212;DHT22;16228;48.800;9.002;2022-11-15T08:13:00;12.40;96.90
212;DHT22;16228;48.800;9.002;2022-11-15T08:15:28;12.60;96.90
212;DHT22;16228;48.800;9.002;2022-11-15T08:17:56;12.80;96.90
212;DHT22;16228;48.800;9.002;2022-11-15T08:20:26;13.00;96.90
212;DHT22;16228;48.800;9.002;2022-11-15T08:22:55;13.10;96.90
212;DHT22;16228;48.800;9.002;2022-11-15T08:25:22;13.30;96.90
212;DHT22;16228;48.800;9.002;2022-11-15T08:27:52;13.50;96.90
212;DHT22;16228;48.800;9.002;2022-11-15T08:30:19;13.80;96.90
212;DHT22;16228;48.800;9.002;2022-11-15T08:32:46;14.10;96.90
212;DHT22;16228;48.800;9.002;2022-11-15T08:35:13;14.50;96.90
212;DHT22;16228;48.800;9.002;2022-11-15T08:37:41;14.90;96.90
212;DHT22;16228;48.800;9.002;2022-11-15T08:40:09;15.30;96.90
212;DHT22;16228;48.800;9.002;2022-11-15T08:42:36;15.60;96.90
212;DHT22;16228;48.800;9.002;2022-11-15T08:45:04;15.90;96.90
212;DHT22;16228;48.800;9.002;2022-11-15T08:47:31;16.20;96.90
212;DHT22;16228;48.800;9.002;2022-11-15T08:49:58;16.50;96.90
212;DHT22;16228;48.800;9.002;2022-11-15T08:52:25;16.80;96.90
212;DHT22;16228;48.800;9.002;2022-11-15T08:54:54;16.90;96.90
212;DHT22;16228;48.800;9.002;2022-11-15T08:57:20;16.90;96.90
212;DHT22;16228;48.800;9.002;2022-11-15T08:59:47;16.90;96.90
212;DHT22;16228;48.800;9.002;2022-11-15T09:02:15;16.70;96.90
212;DHT22;16228;48.800;9.002;2022-11-15T09:04:43;16.60;96.90
212;DHT22;16228;48.800;9.002;2022-11-15T09:07:11;16.80;96.90
212;DHT22;16228;48.800;9.002;2022-11-15T09:09:38;16.90;96.90
212;DHT22;16228;48.800;9.002;2022-11-15T09:12:07;16.90;96.90
212;DHT22;16228;48.800;9.002;2022-11-15T09:14:34;16.90;96.90
212;DHT22;16228;48.800;9.002;2022-11-15T09:17:01;16.80;96.90
212;DHT22;16228;48.800;9.002;2022-11-15T09:19:28;16.70;96.90
212;DHT22;16228;48.800;9.002;2022-11-15T09:21:55;16.60;96.90
212;DHT22;16228;48.800;9.002;2022-11-15T09:24:22;16.40;96.90
212;DHT22;16228;48.800;9.002;2022-11-15T09:26:50;16.30;96.90
212;DHT22;16228;48.800;9.002;2022-11-15T09:29:19;16.20;96.90
212;DHT22;16228;48.800;9.002;2022-11-15T09:31:46;16.20;96.90
212;DHT22;16228;48.800;9.002;2022-11-15T09:34:13;16.40;96.90
212;DHT22;16228;48.800;9.002;2022-11-15T09:36:40;16.70;96.90
212;DHT22;16228;48.800;9.002;2022-11-15T09:39:07;17.20;96.90
212;DHT22;16228;48.800;9.002;2022-11-15T09:41:51;17.50;96.90
212;DHT22;16228;48.800;9.002;2022-11-15T09:44:36;17.70;96.20
212;DHT22;16228;48.800;9.002;2022-11-15T09:50:09;17.30;96.10
212;DHT22;16228;48.800;9.002;2022-11-15T09:52:38;17.10;96.90
212;DHT22;16228;48.800;9.002;2022-11-15T09:55:09;17.00;96.90
212;DHT22;16228;48.800;9.002;2022-11-15T09:57:41;16.90;96.90
212;DHT22;16228;48.800;9.002;2022-11-15T10:00:17;16.70;96.90
212;DHT22;16228;48.800;9.002;2022-11-15T10:03:02;16.60;96.90
212;DHT22;16228;48.800;9.002;2022-11-15T10:05:32;16.40;96.90
212;DHT22;16228;48.800;9.002;2022-11-15T10:08:06;16.10;96.90
212;DHT22;16228;48.800;9.002;2022-11-15T10:10:40;16.10;96.90
212;DHT22;16228;48.800;9.002;2022-11-15T10:13:13;16.10;96.90
212;DHT22;16228;48.800;9.002;2022-11-15T10:15:43;16.00;96.90
212;DHT22;16228;48.800;9.002;2022-11-15T10:18:18;15.90;96.90
212;DHT22;16228;48.800;9.002;2022-11-15T10:20:50;16.00;96.90
212;DHT22;16228;48.800;9.002;2022-11-15T10:23:19;16.10;96.90
212;DHT22;16228;48.800;9.002;2022-11-15T10:25:48;16.10;96.90
212;DHT22;16228;48.800;9.002;2022-11-15T10:28:21;16.20;96.90
212;DHT22;16228;48.800;9.002;2022-11-15T10:30:52;16.20;96.90
212;DHT22;16228;48.800;9.002;2022-11-15T10:33:25;16.10;96.90
212;DHT22;16228;48.800;9.002;2022-11-15T10:36:15;16.00;96.90
212;DHT22;16228;48.800;9.002;2022-11-15T10:38:58;16.10;96.90
212;DHT22;16228;48.800;9.002;2022-11-15T10:41:36;15.90;96.90
212;DHT22;16228;48.800;9.002;2022-11-15T10:44:11;15.80;96.90
212;DHT22;16228;48.800;9.002;2022-11-15T10:46:41;15.90;96.90
212;DHT22;16228;48.800;9.002;2022-11-15T10:49:13;15.80;96.90
212;DHT22;16228;48.800;9.002;2022-11-15T10:51:45;15.80;96.90
212;DHT22;16228;48.800;9.002;2022-11-15T10:54:13;15.70;96.90
212;DHT22;16228;48.800;9.002;2022-11-15T10:56:42;15.70;96.90
212;DHT22;16228;48.800;9.002;2022-11-15T10:59:16;15.70;96.90
212;DHT22;16228;48.800;9.002;2022-11-15T11:01:49;15.60;96.90
212;DHT22;16228;48.800;9.002;2022-11-15T11:04:16;15.50;96.90
212;DHT22;16228;48.800;9.002;2022-11-15T11:06:47;15.40;96.90
212;DHT22;16228;48.800;9.002;2022-11-15T11:09:23;15.30;96.90
212;DHT22;16228;48.800;9.002;2022-11-15T11:11:53;15.20;96.90
212;DHT22;16228;48.800;9.002;2022-11-15T11:14:22;15.30;96.90
212;DHT22;16228;48.800;9.002;2022-11-15T11:16:55;15.20;96.90
212;DHT22;16228;48.800;9.002;2022-11-15T11:19:48;15.30;96.90
212;DHT22;16228;48.800;9.002;2022-11-15T11:22:22;15.30;96.90
212;DHT22;16228;48.800;9.002;2022-11-15T11:25:04;15.30;96.90
212;DHT22;16228;48.800;9.002;2022-11-15T11:27:43;15.50;96.90
212;DHT22;16228;48.800;9.002;2022-11-15T11:30:18;15.70;96.90
212;DHT22;16228;48.800;9.002;2022-11-15T11:33:12;15.80;96.90
212;DHT22;16228;48.800;9.002;2022-11-15T11:35:46;16.10;96.90
212;DHT22;16228;48.800;9.002;2022-11-15T11:38:23;16.30;96.90
212;DHT22;16228;48.800;9.002;2022-11-15T11:41:04;16.30;96.90
212;DHT22;16228;48.800;9.002;2022-11-15T11:43:40;16.40;96.90
212;DHT22;16228;48.800;9.002;2022-11-15T11:46:37;16.50;96.90
212;DHT22;16228;48.800;9.002;2022-11-15T11:49:12;16.60;96.90
212;DHT22;16228;48.800;9.002;2022-11-15T11:51:45;16.80;96.90
212;DHT22;16228;48.800;9.002;2022-11-15T11:54:14;17.10;96.90
212;DHT22;16228;48.800;9.002;2022-11-15T11:56:45;17.70;96.90
212;DHT22;16228;48.800;9.002;2022-11-15T11:59:19;18.70;96.90
212;DHT22;16228;48.800;9.002;2022-11-15T12:01:48;19.40;94.00
212;DHT22;16228;48.800;9.002;2022-11-15T12:04:20;19.80;92.00
212;DHT22;16228;48.800;9.002;2022-11-15T12:06:50;19.80;92.00
212;DHT22;16228;48.800;9.002;2022-11-15T12:09:23;19.60;91.40
212;DHT22;16228;48.800;9.002;2022-11-15T12:11:58;19.20;92.00
212;DHT22;16228;48.800;9.002;2022-11-15T12:14:32;18.90;94.10
212;DHT22;16228;48.800;9.002;2022-11-15T12:17:00;18.50;94.90
212;DHT22;16228;48.800;9.002;2022-11-15T12:19:30;18.20;96.90
212;DHT22;16228;48.800;9.002;2022-11-15T12:22:02;17.90;96.10
212;DHT22;16228;48.800;9.002;2022-11-15T12:24:34;17.60;96.90
212;DHT22;16228;48.800;9.002;2022-11-15T12:27:05;17.30;96.90
212;DHT22;16228;48.800;9.002;2022-11-15T12:29:37;17.10;96.90
212;DHT22;16228;48.800;9.002;2022-11-15T12:32:14;17.00;96.90
212;DHT22;16228;48.800;9.002;2022-11-15T12:34:46;16.80;96.90
212;DHT22;16228;48.800;9.002;2022-11-15T12:37:44;16.60;96.90
212;DHT22;16228;48.800;9.002;2022-11-15T12:40:32;16.50;96.90
212;DHT22;16228;48.800;9.002;2022-11-15T12:43:02;16.30;96.90
212;DHT22;16228;48.800;9.002;2022-11-15T12:45:31;16.10;96.90
212;DHT22;16228;48.800;9.002;2022-11-15T12:51:01;15.90;96.90
212;DHT22;16228;48.800;9.002;2022-11-15T12:53:30;15.90;96.90
212;DHT22;16228;48.800;9.002;2022-11-15T12:56:21;15.90;96.90
212;DHT22;16228;48.800;9.002;2022-11-15T12:58:55;16.00;96.90
212;DHT22;16228;48.800;9.002;2022-11-15T13:01:57;15.90;96.90
212;DHT22;16228;48.800;9.002;2022-11-15T13:04:27;15.80;96.90
212;DHT22;16228;48.800;9.002;2022-11-15T13:06:59;15.70;96.90
212;DHT22;16228;48.800;9.002;2022-11-15T13:09:53;15.70;96.90
212;DHT22;16228;48.800;9.002;2022-11-15T13:12:48;15.70;96.90
212;DHT22;16228;48.800;9.002;2022-11-15T13:15:31;15.70;96.90
212;DHT22;16228;48.800;9.002;2022-11-15T13:21:02;15.50;96.90
212;DHT22;16228;48.800;9.002;2022-11-15T13:23:54;15.60;96.90
212;DHT22;16228;48.800;9.002;2022-11-15T13:26:22;15.70;96.90
212;DHT22;16228;48.800;9.002;2022-11-15T13:28:51;15.70;96.90
212;DHT22;16228;48.800;9.002;2022-11-15T13:31:26;15.70;96.90
212;DHT22;16228;48.800;9.002;2022-11-15T13:33:57;15.70;96.90
212;DHT22;16228;48.800;9.002;2022-11-15T13:36:27;15.60;96.90
212;DHT22;16228;48.800;9.002;2022-11-15T13:38:58;15.60;96.90
212;DHT22;16228;48.800;9.002;2022-11-15T13:41:28;15.50;96.90
212;DHT22;16228;48.800;9.002;2022-11-15T13:43:56;15.50;96.90
212;DHT22;16228;48.800;9.002;2022-11-15T13:46:24;15.60;96.90
212;DHT22;16228;48.800;9.002;2022-11-15T13:48:55;15.60;96.90
212;DHT22;16228;48.800;9.002;2022-11-15T13:51:27;15.60;96.90
212;DHT22;16228;48.800;9.002;2022-11-15T13:54:01;15.50;96.90
212;DHT22;16228;48.800;9.002;2022-11-15T13:56:30;15.40;96.90
212;DHT22;16228;48.800;9.002;2022-11-15T13:59:00;15.30;96.90
212;DHT22;16228;48.800;9.002;2022-11-15T14:01:29;15.20;96.90
212;DHT22;16228;48.800;9.002;2022-11-15T14:03:59;15.30;96.90
212;DHT22;16228;48.800;9.002;2022-11-15T14:06:29;15.30;96.90
212;DHT22;16228;48.800;9.002;2022-11-15T14:09:29;15.30;96.90
212;DHT22;16228;48.800;9.002;2022-11-15T14:11:57;15.20;96.90
212;DHT22;16228;48.800;9.002;2022-11-15T14:14:25;15.00;96.90
212;DHT22;16228;48.800;9.002;2022-11-15T14:16:54;14.90;96.90
212;DHT22;16228;48.800;9.002;2022-11-15T14:19:39;14.80;96.90
212;DHT22;16228;48.800;9.002;2022-11-15T14:22:20;14.80;96.90
212;DHT22;16228;48.800;9.002;2022-11-15T14:25:07;14.90;96.90
212;DHT22;16228;48.800;9.002;2022-11-15T14:27:34;14.90;96.90
212;DHT22;16228;48.800;9.002;2022-11-15T14:30:02;15.00;96.90
212;DHT22;16228;48.800;9.002;2022-11-15T14:32:37;15.10;96.90
212;DHT22;16228;48.800;9.002;2022-11-15T14:35:13;15.10;96.90
212;DHT22;16228;48.800;9.002;2022-11-15T14:37:40;15.20;96.90
212;DHT22;16228;48.800;9.002;2022-11-15T14:40:13;15.30;96.90
212;DHT22;16228;48.800;9.002;2022-11-15T14:42:41;15.20;96.90
212;DHT22;16228;48.800;9.002;2022-11-15T14:45:13;15.10;96.90
212;DHT22;16228;48.800;9.002;2022-11-15T14:47:41;15.10;96.90
212;DHT22;16228;48.800;9.002;2022-11-15T14:50:12;15.00;96.90
212;DHT22;16228;48.800;9.002;2022-11-15T14:52:39;15.00;96.90
212;DHT22;16228;48.800;9.002;2022-11-15T14:55:15;15.00;96.90
212;DHT22;16228;48.800;9.002;2022-11-15T14:57:44;14.90;96.90
212;DHT22;16228;48.800;9.002;2022-11-15T15:00:12;14.90;96.90
212;DHT22;16228;48.800;9.002;2022-11-15T15:02:40;14.90;96.90
212;DHT22;16228;48.800;9.002;2022-11-15T15:05:16;14.80;96.90
212;DHT22;16228;48.800;9.002;2022-11-15T15:07:43;14.70;96.90
212;DHT22;16228;48.800;9.002;2022-11-15T15:10:13;14.70;96.90
212;DHT22;16228;48.800;9.002;2022-11-15T15:12:40;14.60;96.90
212;DHT22;16228;48.800;9.002;2022-11-15T15:15:12;14.60;96.90
212;DHT22;16228;48.800;9.002;2022-11-15T15:17:40;14.60;96.90
212;DHT22;16228;48.800;9.002;2022-11-15T15:20:07;14.50;96.90
212;DHT22;16228;48.800;9.002;2022-11-15T15:22:35;14.40;96.90
212;DHT22;16228;48.800;9.002;2022-11-15T15:25:02;14.40;96.90
212;DHT22;16228;48.800;9.002;2022-11-15T15:27:30;14.20;96.90
212;DHT22;16228;48.800;9.002;2022-11-15T15:29:57;14.10;96.90
212;DHT22;16228;48.800;9.002;2022-11-15T15:32:24;14.10;96.90
212;DHT22;16228;48.800;9.002;2022-11-15T15:34:51;14.10;96.90
212;DHT22;16228;48.800;9.002;2022-11-15T15:37:22;14.00;96.90
212;DHT22;16228;48.800;9.002;2022-11-15T15:39:52;14.00;96.90
212;DHT22;16228;48.800;9.002;2022-11-15T15:42:20;13.90;96.90
212;DHT22;16228;48.800;9.002;2022-11-15T15:44:49;13.80;96.90
212;DHT22;16228;48.800;9.002;2022-11-15T15:47:19;13.70;96.90
212;DHT22;16228;48.800;9.002;2022-11-15T15:49:47;13.60;96.90
212;DHT22;16228;48.800;9.002;2022-11-15T15:52:14;13.60;96.90
212;DHT22;16228;48.800;9.002;2022-11-15T15:54:41;13.50;96.90
212;DHT22;16228;48.800;9.002;2022-11-15T15:57:11;13.50;96.90
212;DHT22;16228;48.800;9.002;2022-11-15T15:59:39;13.50;96.90
212;DHT22;16228;48.800;9.002;2022-11-15T16:02:10;13.50;96.90
212;DHT22;16228;48.800;9.002;2022-11-15T16:04:38;13.50;96.90
212;DHT22;16228;48.800;9.002;2022-11-15T16:07:05;13.50;96.90
212;DHT22;16228;48.800;9.002;2022-11-15T16:09:34;13.40;96.90
212;DHT22;16228;48.800;9.002;2022-11-15T16:12:19;13.40;96.90
212;DHT22;16228;48.800;9.002;2022-11-15T16:14:46;13.40;96.90
212;DHT22;16228;48.800;9.002;2022-11-15T16:17:18;13.30;96.90
212;DHT22;16228;48.800;9.002;2022-11-15T16:19:46;13.30;96.90
212;DHT22;16228;48.800;9.002;2022-11-15T16:22:13;13.30;96.90
212;DHT22;16228;48.800;9.002;2022-11-15T16:24:40;13.20;96.90
212;DHT22;16228;48.800;9.002;2022-11-15T16:27:12;13.20;96.90
212;DHT22;16228;48.800;9.002;2022-11-15T16:29:39;13.30;96.90
212;DHT22;16228;48.800;9.002;2022-11-15T16:32:06;13.30;96.90
212;DHT22;16228;48.800;9.002;2022-11-15T16:34:34;13.30;96.90
212;DHT22;16228;48.800;9.002;2022-11-15T16:37:01;13.30;96.90
212;DHT22;16228;48.800;9.002;2022-11-15T16:39:28;13.30;96.90